createdAt,value
2019-05-26T00:01:12.919Z,9.00
2019-05-26T00:03:19.393Z,9.17
2019-05-26T00:05:26.751Z,8.53
2019-05-26T00:07:33.125Z,9.87
2019-05-26T00:09:39.526Z,9.23
2019-05-26T00:11:46.470Z,8.67
2019-05-26T00:13:54.270Z,7.83
2019-05-26T00:16:00.850Z,10.30
2019-05-26T00:18:07.200Z,9.73
2019-05-26T00:20:14.669Z,11.10
2019-05-26T00:22:23.513Z,8.77
2019-05-26T00:24:29.865Z,9.43
2019-05-26T00:26:36.092Z,8.30
2019-05-26T00:28:42.790Z,9.90
2019-05-26T00:30:49.190Z,9.77
2019-05-26T00:32:56.128Z,9.90
2019-05-26T00:35:02.400Z,8.47
2019-05-26T00:37:08.957Z,8.70
2019-05-26T00:39:15.328Z,7.17
2019-05-26T00:41:21.765Z,7.90
2019-05-26T00:43:32.346Z,12.77
2019-05-26T00:45:39.029Z,14.07
2019-05-26T00:47:45.786Z,9.57
2019-05-26T00:49:52.165Z,11.13
2019-05-26T00:51:58.529Z,11.57
2019-05-26T00:54:05.072Z,11.93
2019-05-26T00:56:11.959Z,10.13
2019-05-26T00:58:18.215Z,10.93
2019-05-26T01:00:44.839Z,10.13
2019-05-26T01:02:51.132Z,10.60
2019-05-26T01:04:57.660Z,13.00
2019-05-26T01:07:05.156Z,11.73
2019-05-26T01:09:11.850Z,9.80
2019-05-26T01:11:19.450Z,10.87
2019-05-26T01:13:25.720Z,10.67
2019-05-26T01:15:32.884Z,13.60
2019-05-26T01:17:39.344Z,14.97
2019-05-26T01:19:45.702Z,11.83
2019-05-26T01:21:53.791Z,10.43
2019-05-26T01:24:00.475Z,11.67
2019-05-26T01:26:08.401Z,10.90
2019-05-26T01:28:14.614Z,11.87
2019-05-26T01:30:24.803Z,9.73
2019-05-26T01:32:31.256Z,8.43
2019-05-26T01:34:37.519Z,11.43
2019-05-26T01:36:43.979Z,10.40
2019-05-26T01:38:52.244Z,8.13
2019-05-26T01:40:58.557Z,11.10
2019-05-26T01:43:05.102Z,14.00
2019-05-26T01:45:12.116Z,14.77
2019-05-26T01:47:18.463Z,14.13
2019-05-26T01:49:24.717Z,11.63
2019-05-26T01:51:31.092Z,9.00
2019-05-26T01:53:37.646Z,13.07
2019-05-26T01:55:44.013Z,9.80
2019-05-26T01:57:50.382Z,11.50
2019-05-26T01:59:58.436Z,11.47
2019-05-26T02:02:05.269Z,14.47
2019-05-26T02:04:13.046Z,17.37
2019-05-26T02:06:19.820Z,8.90
2019-05-26T02:08:38.440Z,10.17
2019-05-26T02:10:34.082Z,10.30
2019-05-26T02:12:40.439Z,9.63
2019-05-26T02:14:46.906Z,13.13
2019-05-26T02:16:53.154Z,9.83
2019-05-26T02:18:59.528Z,12.83
2019-05-26T02:21:06.074Z,7.70
2019-05-26T02:23:13.271Z,10.40
2019-05-26T02:25:20.935Z,9.17
2019-05-26T02:27:27.346Z,10.90
2019-05-26T02:29:33.610Z,10.50
2019-05-26T02:31:39.867Z,11.57
2019-05-26T02:33:46.449Z,10.30
2019-05-26T02:35:52.715Z,7.57
2019-05-26T02:37:59.132Z,7.63
2019-05-26T02:40:08.774Z,10.37
2019-05-26T02:42:19.779Z,9.47
2019-05-26T02:44:26.951Z,12.40
2019-05-26T02:46:34.035Z,8.40
2019-05-26T02:48:40.414Z,11.20
2019-05-26T02:50:46.751Z,10.17
2019-05-26T02:52:53.290Z,8.27
2019-05-26T02:54:59.587Z,7.77
2019-05-26T02:57:05.951Z,8.80
2019-05-26T02:59:12.533Z,7.03
2019-05-26T03:01:19.877Z,13.80
2019-05-26T03:03:26.778Z,12.00
2019-05-26T03:05:34.048Z,7.80
2019-05-26T03:07:43.952Z,6.57
2019-05-26T03:09:51.906Z,10.33
2019-05-26T03:12:00.704Z,9.73
2019-05-26T03:14:07.601Z,8.17
2019-05-26T03:16:18.546Z,10.90
2019-05-26T03:18:24.807Z,10.60
2019-05-26T03:20:35.614Z,7.00
2019-05-26T03:22:47.881Z,11.97
2019-05-26T03:24:55.168Z,8.87
2019-05-26T03:27:01.980Z,9.90
2019-05-26T03:29:08.296Z,5.93
2019-05-26T03:31:14.799Z,8.13
2019-05-26T03:33:22.261Z,5.13
2019-05-26T03:35:29.653Z,8.23
2019-05-26T03:37:35.902Z,9.40
2019-05-26T03:39:45.965Z,7.17
2019-05-26T03:41:51.279Z,5.20
2019-05-26T03:43:57.555Z,6.67
2019-05-26T03:46:20.407Z,8.50
2019-05-26T03:48:27.273Z,6.00
2019-05-26T03:50:33.564Z,9.83
2019-05-26T03:52:39.895Z,7.67
2019-05-26T03:54:46.175Z,5.47
2019-05-26T03:56:53.251Z,6.30
2019-05-26T03:58:59.801Z,10.80
2019-05-26T04:01:06.603Z,7.97
2019-05-26T04:03:12.937Z,7.27
2019-05-26T04:05:19.217Z,10.03
2019-05-26T04:07:29.071Z,8.20
2019-05-26T04:09:38.496Z,10.67
2019-05-26T04:11:44.728Z,9.17
2019-05-26T04:13:51.940Z,7.63
2019-05-26T04:15:58.404Z,5.30
2019-05-26T04:18:04.964Z,10.67
2019-05-26T04:20:11.492Z,7.87
2019-05-26T04:22:17.776Z,7.37
2019-05-26T04:24:24.352Z,7.47
2019-05-26T04:26:30.834Z,7.03
2019-05-26T04:34:56.081Z,6.93
2019-05-26T04:37:02.333Z,6.90
2019-05-26T04:39:09.203Z,5.93
2019-05-26T04:41:15.468Z,7.23
2019-05-26T04:43:21.811Z,7.40
2019-05-26T04:47:33.421Z,5.77
2019-05-26T04:49:40.856Z,5.10
2019-05-26T04:51:47.166Z,7.67
2019-05-26T04:53:53.528Z,8.93
2019-05-26T04:56:00.097Z,5.97
2019-05-26T04:58:07.894Z,5.30
2019-05-26T05:00:16.001Z,8.67
2019-05-26T05:02:22.265Z,7.13
2019-05-26T05:04:28.728Z,6.80
2019-05-26T05:06:35.085Z,5.87
2019-05-26T05:08:41.564Z,8.03
2019-05-26T05:10:47.916Z,8.43
2019-05-26T05:12:54.373Z,9.40
2019-05-26T05:15:02.478Z,7.10
2019-05-26T05:17:09.265Z,7.87
2019-05-26T05:19:15.612Z,5.50
2019-05-26T05:21:22.181Z,7.23
2019-05-26T05:23:28.544Z,5.90
2019-05-26T05:25:36.448Z,9.20
2019-05-26T05:27:42.895Z,8.80
2019-05-26T05:29:49.291Z,8.00
2019-05-26T05:31:55.541Z,9.43
2019-05-26T05:34:01.781Z,6.63
2019-05-26T05:36:08.058Z,6.13
2019-05-26T05:38:15.332Z,8.87
2019-05-26T05:40:22.105Z,7.27
2019-05-26T05:42:28.342Z,10.33
2019-05-26T05:44:34.719Z,10.43
2019-05-26T05:46:40.984Z,5.80
2019-05-26T05:48:47.249Z,9.03
2019-05-26T05:50:53.500Z,8.37
2019-05-26T05:52:59.784Z,7.57
2019-05-26T05:55:08.385Z,8.23
2019-05-26T05:57:14.636Z,6.87
2019-05-26T05:59:21.814Z,6.93
2019-05-26T06:01:28.095Z,6.17
2019-05-26T06:03:34.548Z,5.30
2019-05-26T06:05:40.915Z,7.63
2019-05-26T06:07:48.740Z,7.20
2019-05-26T06:09:55.215Z,7.13
2019-05-26T06:12:01.537Z,8.37
2019-05-26T06:14:07.794Z,7.70
2019-05-26T06:16:14.245Z,7.17
2019-05-26T06:18:20.837Z,6.53
2019-05-26T06:20:27.090Z,8.20
2019-05-26T06:22:33.363Z,6.80
2019-05-26T06:24:39.919Z,5.80
2019-05-26T06:26:46.260Z,9.97
2019-05-26T06:28:52.876Z,8.50
2019-05-26T06:30:59.212Z,8.53
2019-05-26T06:33:05.683Z,6.73
2019-05-26T06:35:12.995Z,7.20
2019-05-26T06:37:19.230Z,7.57
2019-05-26T06:39:25.887Z,7.60
2019-05-26T06:41:34.010Z,9.97
2019-05-26T06:43:40.693Z,6.87
2019-05-26T06:45:47.133Z,9.03
2019-05-26T06:47:54.937Z,11.53
2019-05-26T06:50:02.859Z,5.80
2019-05-26T06:52:09.385Z,6.67
2019-05-26T06:54:15.787Z,7.53
2019-05-26T06:56:22.125Z,6.63
2019-05-26T06:58:29.810Z,6.93
2019-05-26T07:00:36.205Z,4.30
2019-05-26T07:02:42.939Z,7.77
2019-05-26T07:04:49.525Z,7.03
2019-05-26T07:06:56.483Z,9.03
2019-05-26T07:09:02.957Z,5.70
2019-05-26T07:11:09.514Z,7.73
2019-05-26T07:13:15.906Z,7.53
2019-05-26T07:15:22.460Z,9.73
2019-05-26T07:17:29.331Z,5.40
2019-05-26T07:19:35.911Z,4.77
2019-05-26T07:21:42.580Z,6.50
2019-05-26T07:23:48.934Z,7.23
2019-05-26T07:25:55.195Z,6.83
2019-05-26T07:28:01.446Z,10.80
2019-05-26T07:30:09.626Z,5.17
2019-05-26T07:32:15.929Z,5.93
2019-05-26T07:34:22.301Z,4.53
2019-05-26T07:36:28.670Z,5.70
2019-05-26T07:38:35.224Z,6.83
2019-05-26T07:40:41.583Z,6.17
2019-05-26T07:42:48.958Z,5.47
2019-05-26T07:44:55.228Z,6.17
2019-05-26T07:47:01.505Z,7.77
2019-05-26T07:49:08.171Z,5.67
2019-05-26T07:51:14.627Z,7.40
2019-05-26T07:53:21.186Z,5.97
2019-05-26T07:55:27.435Z,5.50
2019-05-26T07:57:33.800Z,6.07
2019-05-26T07:59:40.285Z,8.80
2019-05-26T08:01:46.647Z,4.23
2019-05-26T08:03:53.589Z,8.63
2019-05-26T08:05:59.858Z,4.63
2019-05-26T08:08:12.598Z,8.00
2019-05-26T08:10:15.055Z,6.20
2019-05-26T08:12:26.164Z,5.70
2019-05-26T08:14:29.545Z,6.70
2019-05-26T08:16:35.793Z,4.57
2019-05-26T08:18:42.766Z,8.40
2019-05-26T08:20:49.021Z,6.63
2019-05-26T08:22:56.822Z,7.60
2019-05-26T08:25:03.375Z,5.33
2019-05-26T08:27:09.836Z,7.37
2019-05-26T08:29:17.635Z,7.20
2019-05-26T08:31:24.743Z,8.67
2019-05-26T08:33:31.195Z,4.53
2019-05-26T08:35:38.805Z,8.20
2019-05-26T08:37:46.591Z,6.37
2019-05-26T08:39:53.239Z,5.07
2019-05-26T08:41:59.819Z,5.07
2019-05-26T08:44:07.408Z,3.73
2019-05-26T08:46:15.505Z,9.03
2019-05-26T08:48:21.794Z,4.70
2019-05-26T08:50:28.220Z,6.63
2019-05-26T08:52:34.488Z,3.27
2019-05-26T08:54:40.849Z,5.03
2019-05-26T08:56:47.225Z,3.03
2019-05-26T08:58:53.581Z,4.83
2019-05-26T09:00:59.945Z,6.07
2019-05-26T09:03:06.329Z,5.80
2019-05-26T09:05:13.407Z,5.63
2019-05-26T09:07:21.285Z,4.77
2019-05-26T09:09:27.564Z,3.80
2019-05-26T09:11:38.028Z,5.63
2019-05-26T09:13:43.781Z,4.07
2019-05-26T09:15:50.315Z,6.43
2019-05-26T09:18:00.874Z,4.20
2019-05-26T09:20:11.753Z,6.40
2019-05-26T09:22:18.730Z,6.27
2019-05-26T09:24:25.141Z,3.80
2019-05-26T09:26:31.446Z,5.83
2019-05-26T09:28:39.373Z,4.93
2019-05-26T09:30:47.274Z,3.13
2019-05-26T09:32:55.340Z,6.20
2019-05-26T09:35:04.016Z,5.60
2019-05-26T09:37:10.400Z,8.83
2019-05-26T09:39:16.737Z,7.57
2019-05-26T09:41:24.495Z,7.17
2019-05-26T09:43:32.323Z,5.50
2019-05-26T09:45:40.120Z,6.33
2019-05-26T09:47:46.671Z,6.77
2019-05-26T09:49:53.733Z,3.67
2019-05-26T09:52:01.929Z,5.80
2019-05-26T09:54:12.520Z,6.10
2019-05-26T09:56:17.945Z,3.60
2019-05-26T09:58:24.299Z,7.07
2019-05-26T10:00:30.991Z,4.53
2019-05-26T10:02:37.480Z,5.67
2019-05-26T10:04:46.439Z,3.70
2019-05-26T10:06:54.363Z,5.23
2019-05-26T10:09:02.181Z,6.07
2019-05-26T10:11:08.923Z,3.47
2019-05-26T10:13:30.790Z,4.10
2019-05-26T10:15:26.267Z,3.30
2019-05-26T10:17:33.749Z,4.63
2019-05-26T10:19:40.003Z,3.80
2019-05-26T10:21:46.561Z,3.83
2019-05-26T10:23:53.352Z,3.60
2019-05-26T10:25:59.705Z,4.80
2019-05-26T10:28:05.980Z,5.53
2019-05-26T10:30:15.309Z,4.30
2019-05-26T10:32:21.867Z,7.43
2019-05-26T10:34:28.260Z,3.60
2019-05-26T10:36:34.507Z,4.40
2019-05-26T10:38:42.802Z,4.83
2019-05-26T10:40:49.064Z,3.63
2019-05-26T10:42:55.324Z,4.67
2019-05-26T10:45:02.190Z,2.90
2019-05-26T10:47:08.473Z,5.63
2019-05-26T10:49:14.744Z,4.63
2019-05-26T10:51:21.173Z,2.60
2019-05-26T10:53:28.889Z,4.07
2019-05-26T10:55:35.542Z,5.30
2019-05-26T10:57:42.024Z,3.33
2019-05-26T10:59:48.265Z,4.63
2019-05-26T11:01:55.254Z,4.33
2019-05-26T11:04:01.602Z,6.27
2019-05-26T11:06:08.182Z,6.60
2019-05-26T11:08:14.418Z,5.87
2019-05-26T11:10:21.543Z,3.77
2019-05-26T11:12:28.184Z,7.60
2019-05-26T11:14:34.449Z,3.10
2019-05-26T11:16:40.707Z,5.57
2019-05-26T11:18:47.291Z,3.97
2019-05-26T11:20:53.659Z,4.57
2019-05-26T11:23:00.247Z,5.03
2019-05-26T11:25:10.891Z,3.07
2019-05-26T11:27:19.931Z,2.70
2019-05-26T11:29:26.440Z,3.23
2019-05-26T11:31:32.924Z,6.20
2019-05-26T11:33:39.746Z,4.87
2019-05-26T11:35:46.265Z,4.10
2019-05-26T11:37:52.522Z,4.27
2019-05-26T11:40:00.328Z,3.73
2019-05-26T11:42:13.125Z,4.90
2019-05-26T11:44:18.319Z,4.57
2019-05-26T11:46:23.500Z,6.37
2019-05-26T11:48:29.770Z,4.27
2019-05-26T11:50:36.153Z,5.37
2019-05-26T11:52:42.413Z,7.30
2019-05-26T11:54:48.986Z,6.60
2019-05-26T11:56:55.234Z,5.57
2019-05-26T11:59:01.781Z,3.13
2019-05-26T12:01:08.139Z,6.33
2019-05-26T12:03:14.395Z,3.07
2019-05-26T12:05:20.864Z,4.97
2019-05-26T12:07:27.139Z,2.30
2019-05-26T12:09:35.070Z,6.97
2019-05-26T12:11:41.593Z,4.23
2019-05-26T12:13:47.980Z,3.47
2019-05-26T12:15:54.229Z,3.77
2019-05-26T12:18:00.904Z,7.30
2019-05-26T12:20:08.900Z,5.03
2019-05-26T12:22:15.380Z,2.87
2019-05-26T12:24:33.824Z,7.43
2019-05-26T12:26:40.080Z,3.80
2019-05-26T12:28:47.455Z,4.70
2019-05-26T12:30:55.161Z,3.40
2019-05-26T12:33:02.343Z,4.40
2019-05-26T12:35:10.523Z,5.93
2019-05-26T12:37:16.890Z,4.07
2019-05-26T12:39:23.142Z,5.93
2019-05-26T12:41:37.360Z,2.37
2019-05-26T12:43:45.725Z,5.10
2019-05-26T12:45:52.426Z,2.67
2019-05-26T12:47:58.950Z,4.73
2019-05-26T12:50:09.625Z,3.03
2019-05-26T12:52:16.193Z,4.80
2019-05-26T12:54:22.534Z,2.47
2019-05-26T12:56:28.894Z,4.00
2019-05-26T12:58:36.292Z,5.20
2019-05-26T13:00:48.704Z,2.40
2019-05-26T13:02:52.340Z,3.87
2019-05-26T13:04:59.211Z,4.10
2019-05-26T13:07:06.049Z,2.63
2019-05-26T13:09:13.945Z,2.03
2019-05-26T13:11:22.775Z,4.07
2019-05-26T13:13:28.624Z,5.10
2019-05-26T13:15:35.179Z,2.50
2019-05-26T13:17:42.569Z,4.63
2019-05-26T13:19:48.848Z,3.03
2019-05-26T13:21:55.919Z,2.13
2019-05-26T13:24:02.163Z,6.87
2019-05-26T13:26:08.432Z,2.97
2019-05-26T13:28:15.081Z,3.53
2019-05-26T13:30:24.832Z,4.30
2019-05-26T13:32:31.404Z,9.23
2019-05-26T13:34:38.692Z,2.50
2019-05-26T13:36:45.070Z,3.37
2019-05-26T13:38:51.301Z,2.47
2019-05-26T13:40:57.580Z,4.70
2019-05-26T13:43:04.128Z,2.90
2019-05-26T13:45:21.688Z,4.13
2019-05-26T13:47:26.247Z,3.93
2019-05-26T13:49:29.796Z,4.40
2019-05-26T13:51:37.067Z,2.13
2019-05-26T13:53:45.065Z,3.83
2019-05-26T13:55:51.313Z,3.70
2019-05-26T13:58:00.690Z,5.50
2019-05-26T14:00:16.439Z,4.27
2019-05-26T14:02:23.014Z,3.47
2019-05-26T14:04:29.577Z,5.07
2019-05-26T14:06:36.044Z,4.63
2019-05-26T14:08:42.400Z,2.63
2019-05-26T14:10:48.670Z,2.30
2019-05-26T14:12:55.142Z,4.77
2019-05-26T14:15:02.413Z,3.23
2019-05-26T14:17:08.670Z,2.77
2019-05-26T14:19:16.383Z,2.97
2019-05-26T14:21:22.730Z,5.50
2019-05-26T14:23:28.989Z,4.70
2019-05-26T14:25:35.870Z,4.90
2019-05-26T14:27:42.151Z,2.10
2019-05-26T14:29:48.510Z,5.30
2019-05-26T14:31:55.063Z,5.67
2019-05-26T14:34:01.742Z,4.53
2019-05-26T14:36:08.704Z,2.67
2019-05-26T14:38:16.601Z,7.37
2019-05-26T14:40:22.877Z,4.67
2019-05-26T14:42:29.139Z,3.13
2019-05-26T14:44:35.501Z,3.67
2019-05-26T14:46:42.157Z,1.77
2019-05-26T14:48:48.415Z,2.10
2019-05-26T14:50:54.881Z,3.33
2019-05-26T14:53:01.349Z,2.87
2019-05-26T14:55:09.313Z,4.00
2019-05-26T14:57:16.049Z,2.10
2019-05-26T14:59:22.349Z,3.47
2019-05-26T15:01:28.857Z,5.50
2019-05-26T15:03:35.115Z,2.43
2019-05-26T15:05:41.383Z,4.33
2019-05-26T15:07:48.042Z,3.87
2019-05-26T15:09:54.719Z,2.63
2019-05-26T15:12:00.978Z,3.23
2019-05-26T15:14:08.563Z,3.73
2019-05-26T15:16:15.273Z,6.07
2019-05-26T15:18:21.604Z,2.60
2019-05-26T15:20:28.391Z,3.20
2019-05-26T15:22:34.741Z,1.73
2019-05-26T15:24:41.586Z,3.07
2019-05-26T15:26:47.970Z,2.77
2019-05-26T15:28:54.227Z,2.53
2019-05-26T15:31:00.589Z,5.07
2019-05-26T15:33:08.497Z,4.20
2019-05-26T15:35:15.365Z,3.93
2019-05-26T15:37:21.733Z,3.57
2019-05-26T15:39:28.009Z,3.57
2019-05-26T15:41:36.943Z,2.77
2019-05-26T15:43:43.173Z,2.97
2019-05-26T15:45:49.546Z,2.63
2019-05-26T15:47:55.900Z,3.40
2019-05-26T15:50:02.164Z,6.53
2019-05-26T15:52:09.961Z,4.27
2019-05-26T15:54:16.210Z,5.20
2019-05-26T15:56:22.465Z,3.27
2019-05-26T15:58:28.737Z,3.33
2019-05-26T16:00:34.995Z,5.33
2019-05-26T16:02:41.973Z,6.77
2019-05-26T16:04:49.763Z,3.90
2019-05-26T16:06:56.337Z,2.73
2019-05-26T16:09:02.702Z,5.17
2019-05-26T16:11:10.098Z,7.20
2019-05-26T16:13:16.543Z,2.80
2019-05-26T16:15:23.175Z,2.30
2019-05-26T16:17:29.573Z,2.60
2019-05-26T16:19:38.200Z,5.43
2019-05-26T16:21:44.654Z,6.27
2019-05-26T16:23:51.020Z,3.43
2019-05-26T16:25:57.299Z,4.90
2019-05-26T16:28:04.972Z,3.50
2019-05-26T16:30:12.289Z,4.53
2019-05-26T16:32:19.093Z,6.57
2019-05-26T16:34:25.600Z,2.83
2019-05-26T16:36:31.852Z,2.83
2019-05-26T16:38:38.252Z,2.43
2019-05-26T16:40:45.131Z,6.37
2019-05-26T16:42:51.484Z,4.23
2019-05-26T16:44:58.135Z,2.53
2019-05-26T16:47:04.584Z,2.60
2019-05-26T16:49:10.864Z,2.10
2019-05-26T16:51:17.517Z,2.17
2019-05-26T16:53:23.926Z,3.37
2019-05-26T16:55:30.145Z,4.57
2019-05-26T16:57:36.722Z,1.77
2019-05-26T16:59:43.079Z,3.53
2019-05-26T17:01:49.524Z,2.97
2019-05-26T17:03:56.314Z,6.30
2019-05-26T17:06:08.200Z,4.73
2019-05-26T17:08:14.095Z,2.13
2019-05-26T17:10:21.084Z,2.33
2019-05-26T17:12:27.618Z,3.57
2019-05-26T17:14:34.066Z,7.07
2019-05-26T17:16:40.555Z,3.13
2019-05-26T17:18:46.947Z,2.43
2019-05-26T17:20:53.567Z,3.37
2019-05-26T17:23:00.335Z,2.07
2019-05-26T17:25:08.446Z,6.30
2019-05-26T17:27:14.887Z,5.10
2019-05-26T17:29:21.387Z,2.90
2019-05-26T17:31:27.875Z,2.87
2019-05-26T17:33:34.921Z,3.23
2019-05-26T17:35:41.300Z,9.00
2019-05-26T17:37:47.760Z,3.93
2019-05-26T17:39:54.017Z,4.97
2019-05-26T17:42:00.587Z,2.33
2019-05-26T17:44:07.869Z,3.43
2019-05-26T17:46:15.274Z,2.80
2019-05-26T17:48:21.836Z,3.27
2019-05-26T17:50:28.205Z,4.47
2019-05-26T17:52:34.577Z,7.47
2019-05-26T17:54:41.021Z,4.70
2019-05-26T17:56:47.374Z,2.83
2019-05-26T17:58:54.971Z,9.60
2019-05-26T18:01:01.333Z,3.73
2019-05-26T18:03:07.708Z,6.27
2019-05-26T18:05:18.294Z,3.73
2019-05-26T18:07:25.726Z,4.07
2019-05-26T18:09:43.709Z,5.87
2019-05-26T18:11:43.222Z,9.00
2019-05-26T18:13:49.556Z,4.73
2019-05-26T18:15:57.637Z,3.90
2019-05-26T18:18:05.441Z,2.43
2019-05-26T18:20:15.700Z,2.37
2019-05-26T18:22:22.324Z,4.20
2019-05-26T18:24:30.379Z,2.87
2019-05-26T18:26:37.031Z,2.53
2019-05-26T18:28:43.770Z,1.70
2019-05-26T18:30:50.072Z,4.57
2019-05-26T18:32:58.165Z,4.40
2019-05-26T18:35:06.807Z,3.93
2019-05-26T18:37:13.667Z,2.73
2019-05-26T18:39:20.644Z,3.50
2019-05-26T18:41:27.118Z,1.77
2019-05-26T18:43:33.936Z,3.77
2019-05-26T18:45:46.115Z,2.77
2019-05-26T18:48:03.084Z,2.20
2019-05-26T18:50:02.709Z,3.60
2019-05-26T18:52:11.452Z,4.70
2019-05-26T18:54:19.453Z,4.73
2019-05-26T18:56:27.652Z,2.73
2019-05-26T18:58:34.518Z,2.17
2019-05-26T19:00:41.070Z,3.20
2019-05-26T19:02:47.747Z,3.50
2019-05-26T19:04:54.476Z,6.17
2019-05-26T19:07:00.889Z,3.10
2019-05-26T19:09:10.720Z,3.70
2019-05-26T19:11:17.336Z,2.63
2019-05-26T19:13:25.377Z,3.90
2019-05-26T19:15:31.748Z,5.57
2019-05-26T19:17:40.091Z,6.40
2019-05-26T19:19:47.249Z,2.23
2019-05-26T19:21:53.960Z,4.63
2019-05-26T19:24:00.795Z,5.50
2019-05-26T19:26:07.765Z,3.03
2019-05-26T19:28:17.632Z,4.67
2019-05-26T19:30:24.629Z,5.10
2019-05-26T19:32:31.436Z,5.67
2019-05-26T19:34:40.377Z,4.17
2019-05-26T19:36:48.134Z,3.63
2019-05-26T19:38:54.864Z,4.13
2019-05-26T19:41:04.284Z,3.37
2019-05-26T19:43:12.487Z,2.47
2019-05-26T19:45:19.285Z,7.50
2019-05-26T19:47:25.622Z,3.53
2019-05-26T19:49:33.824Z,5.27
2019-05-26T19:51:41.935Z,3.60
2019-05-26T19:53:48.287Z,4.73
2019-05-26T19:55:56.487Z,5.00
2019-05-26T19:58:02.996Z,6.10
2019-05-26T20:00:19.368Z,8.17
2019-05-26T20:02:25.626Z,7.17
2019-05-26T20:04:32.301Z,6.80
2019-05-26T20:06:38.782Z,5.77
2019-05-26T20:08:46.583Z,4.93
2019-05-26T20:10:53.345Z,6.30
2019-05-26T20:13:00.601Z,4.77
2019-05-26T20:15:11.082Z,3.93
2019-05-26T20:17:23.182Z,13.83
2019-05-26T20:19:29.869Z,5.13
2019-05-26T20:21:37.655Z,7.37
2019-05-26T20:23:45.739Z,6.20
2019-05-26T20:25:52.218Z,5.33
2019-05-26T20:28:00.327Z,6.87
2019-05-26T20:30:09.443Z,5.47
2019-05-26T20:32:15.931Z,5.80
2019-05-26T20:34:23.588Z,4.57
2019-05-26T20:36:30.161Z,6.97
2019-05-26T20:38:37.124Z,4.57
2019-05-26T20:40:43.838Z,7.53
2019-05-26T20:42:53.137Z,5.27
2019-05-26T20:45:00.019Z,6.67
2019-05-26T20:47:06.730Z,6.07
2019-05-26T20:49:13.043Z,4.90
2019-05-26T20:51:20.833Z,4.57
2019-05-26T20:53:28.513Z,5.77
2019-05-26T20:55:35.425Z,4.23
2019-05-26T20:57:41.783Z,10.63
2019-05-26T20:59:49.777Z,6.20
2019-05-26T21:01:56.242Z,5.87
2019-05-26T21:04:04.773Z,7.83
2019-05-26T21:06:12.755Z,5.30
2019-05-26T21:08:20.646Z,5.37
2019-05-26T21:10:27.438Z,8.10
2019-05-26T21:12:35.008Z,5.07
2019-05-26T21:14:41.278Z,10.40
2019-05-26T21:16:49.706Z,8.27
2019-05-26T21:18:56.085Z,6.70
2019-05-26T21:21:05.443Z,8.80
2019-05-26T21:23:11.851Z,7.70
2019-05-26T21:25:18.610Z,4.73
2019-05-26T21:27:24.882Z,4.90
2019-05-26T21:29:31.237Z,8.90
2019-05-26T21:31:37.935Z,7.07
2019-05-26T21:33:45.629Z,7.83
2019-05-26T21:35:51.977Z,7.20
2019-05-26T21:37:58.603Z,5.43
2019-05-26T21:40:07.778Z,4.70
2019-05-26T21:42:16.033Z,5.87
2019-05-26T21:44:24.417Z,9.07
2019-05-26T21:46:30.651Z,7.93
2019-05-26T21:48:37.098Z,9.13
2019-05-26T21:50:45.096Z,8.17
2019-05-26T21:52:51.779Z,7.63
2019-05-26T21:54:59.872Z,4.90
2019-05-26T21:57:06.123Z,7.37
2019-05-26T21:59:12.408Z,5.37
2019-05-26T22:01:18.837Z,6.47
2019-05-26T22:03:25.111Z,5.37
2019-05-26T22:05:31.914Z,9.13
2019-05-26T22:07:38.142Z,4.53
2019-05-26T22:09:44.400Z,4.93
2019-05-26T22:11:50.658Z,4.53
2019-05-26T22:13:58.361Z,4.17
2019-05-26T22:16:06.299Z,5.60
2019-05-26T22:18:14.562Z,5.07
2019-05-26T22:20:21.118Z,8.67
2019-05-26T22:22:27.402Z,7.30
2019-05-26T22:24:33.637Z,6.07
2019-05-26T22:26:40.120Z,6.87
2019-05-26T22:28:46.357Z,6.80
2019-05-26T22:30:53.027Z,4.77
2019-05-26T22:32:59.411Z,5.37
2019-05-26T22:35:09.051Z,4.60
2019-05-26T22:37:15.298Z,5.17
2019-05-26T22:39:22.068Z,6.07
2019-05-26T22:41:28.332Z,6.80
2019-05-26T22:43:34.600Z,5.20
2019-05-26T22:45:40.855Z,8.40
2019-05-26T22:47:47.107Z,7.87
2019-05-26T22:49:53.374Z,4.93
2019-05-26T22:51:59.651Z,5.07
2019-05-26T22:54:05.919Z,6.47
2019-05-26T22:56:12.266Z,7.50
2019-05-26T22:58:18.524Z,8.03
2019-05-26T23:00:25.118Z,8.17
2019-05-26T23:02:31.994Z,5.13
2019-05-26T23:04:38.320Z,4.63
2019-05-26T23:06:44.577Z,7.13
2019-05-26T23:08:50.841Z,7.73
2019-05-26T23:10:57.318Z,6.43
2019-05-26T23:13:03.583Z,9.43
2019-05-26T23:15:13.172Z,7.37
2019-05-26T23:17:21.209Z,7.13
2019-05-26T23:19:27.689Z,7.90
2019-05-26T23:21:33.943Z,10.93
2019-05-26T23:23:40.197Z,6.57
2019-05-26T23:25:46.454Z,8.60
2019-05-26T23:27:52.820Z,6.07
2019-05-26T23:30:00.429Z,6.53
2019-05-26T23:32:06.675Z,7.87
2019-05-26T23:34:12.939Z,4.90
2019-05-26T23:36:19.203Z,6.57
2019-05-26T23:38:28.522Z,8.73
2019-05-26T23:40:34.785Z,8.33
2019-05-26T23:42:41.049Z,6.57
2019-05-26T23:44:47.404Z,6.37
2019-05-26T23:46:54.469Z,5.57
2019-05-26T23:49:02.790Z,7.10
2019-05-26T23:51:09.049Z,7.37
2019-05-26T23:53:15.312Z,7.57
2019-05-26T23:55:21.672Z,7.97
2019-05-26T23:57:27.951Z,7.77
2019-05-26T23:59:34.201Z,9.37
